Time,TemperatureF,DewpointF,PressureIn,WindDirection,WindDirectionDegrees,WindSpeedMPH,WindSpeedGustMPH,Humidity,HourlyPrecipIn,Conditions,Clouds,dailyrainin,SoftwareType,DateUTC
2013-01-13 00:00:00,70.6,65.2,29.25,SE,145,9.0,9.0,83,0.00,,,0.00,Wunderground v.1.15,2013-01-13 06:00:00,
2013-01-13 00:06:00,70.6,65.2,29.25,SE,136,5.0,12.0,83,0.00,,,0.00,Wunderground v.1.15,2013-01-13 06:06:00,
2013-01-13 00:12:00,70.6,65.2,29.25,SSE,153,3.0,7.0,83,0.00,,,0.00,Wunderground v.1.15,2013-01-13 06:12:00,
2013-01-13 00:18:00,70.6,65.2,29.25,ENE,59,4.0,8.0,83,0.00,,,0.00,Wunderground v.1.15,2013-01-13 06:18:00,
2013-01-13 00:23:00,70.5,65.1,29.25,South,188,5.0,10.0,83,0.00,,,0.00,Wunderground v.1.15,2013-01-13 06:23:00,
2013-01-13 00:29:00,70.6,65.2,29.25,SE,129,5.0,10.0,83,0.00,,,0.00,Wunderground v.1.15,2013-01-13 06:29:00,
2013-01-13 00:35:00,70.5,65.1,29.25,South,172,4.0,8.0,83,0.00,,,0.00,Wunderground v.1.15,2013-01-13 06:35:00,
2013-01-13 00:41:00,70.5,65.1,29.27,SW,218,6.0,6.0,83,0.00,,,0.00,Wunderground v.1.15,2013-01-13 06:41:00,
2013-01-13 00:46:00,70.2,65.1,29.27,SSW,198,4.0,7.0,84,0.00,,,0.01,Wunderground v.1.15,2013-01-13 06:46:00,
2013-01-13 00:52:00,65.3,60.7,29.28,SW,232,8.0,8.0,85,0.12,,,0.02,Wunderground v.1.15,2013-01-13 06:52:00,
2013-01-13 00:58:00,63.0,60.0,29.30,WSW,239,6.0,10.0,90,0.40,,,0.05,Wunderground v.1.15,2013-01-13 06:58:00,
2013-01-13 01:04:00,61.6,59.3,29.28,SW,222,2.0,5.0,92,0.48,,,0.11,Wunderground v.1.15,2013-01-13 07:04:00,
2013-01-13 01:10:00,60.8,59.1,29.28,West,274,12.0,12.0,94,0.19,,,0.13,Wunderground v.1.15,2013-01-13 07:10:00,
2013-01-13 01:16:00,59.0,55.8,29.30,WSW,250,14.0,17.0,89,0.89,,,0.17,Wunderground v.1.15,2013-01-13 07:16:00,
2013-01-13 01:22:00,54.7,51.5,29.33,West,277,16.0,17.0,89,1.68,,,0.26,Wunderground v.1.15,2013-01-13 07:22:00,
2013-01-13 01:27:00,52.4,50.4,29.32,WSW,252,11.0,17.0,93,0.76,,,0.39,Wunderground v.1.15,2013-01-13 07:27:00,
2013-01-13 01:33:00,50.6,48.7,29.32,West,280,12.0,20.0,93,0.47,,,0.47,Wunderground v.1.15,2013-01-13 07:33:00,
2013-01-13 01:39:00,49.3,47.6,29.34,SW,234,17.0,20.0,94,0.38,,,0.52,Wunderground v.1.15,2013-01-13 07:39:00,
2013-01-13 01:45:00,48.4,46.8,29.34,WNW,284,8.0,10.0,94,0.30,,,0.62,Wunderground v.1.15,2013-01-13 07:45:00,
2013-01-13 01:50:00,47.8,46.4,29.34,West,276,8.0,8.0,95,0.62,,,0.71,Wunderground v.1.15,2013-01-13 07:50:00,
2013-01-13 01:56:00,47.4,46.0,29.34,West,281,10.0,10.0,95,0.71,,,0.81,Wunderground v.1.15,2013-01-13 07:56:00,
2013-01-13 02:01:00,47.2,46.1,29.34,WSW,240,3.0,9.0,96,0.49,,,0.85,Wunderground v.1.15,2013-01-13 08:01:00,
2013-01-13 02:06:00,47.0,45.9,29.33,SSW,201,2.0,9.0,96,0.28,,,0.88,Wunderground v.1.15,2013-01-13 08:06:00,
2013-01-13 02:11:00,47.1,46.0,29.34,WNW,283,4.0,11.0,96,0.85,,,0.93,Wunderground v.1.15,2013-01-13 08:11:00,
2013-01-13 02:16:00,47.0,45.9,29.35,WSW,257,3.0,11.0,96,0.64,,,1.01,Wunderground v.1.15,2013-01-13 08:16:00,
2013-01-13 02:21:00,47.0,45.9,29.35,West,281,8.0,10.0,96,0.56,,,1.07,Wunderground v.1.15,2013-01-13 08:21:00,
2013-01-13 02:26:00,46.9,45.8,29.35,NNW,336,4.0,11.0,96,0.67,,,1.12,Wunderground v.1.15,2013-01-13 08:26:00,
2013-01-13 02:31:00,46.7,45.6,29.35,SE,142,1.0,6.0,96,0.43,,,1.16,Wunderground v.1.15,2013-01-13 08:31:00,
2013-01-13 02:36:00,46.3,45.2,29.34,WSW,253,4.0,12.0,96,0.40,,,1.20,Wunderground v.1.15,2013-01-13 08:36:00,
2013-01-13 02:41:00,45.8,44.4,29.35,East,79,9.0,16.0,95,0.21,,,1.22,Wunderground v.1.15,2013-01-13 08:41:00,
2013-01-13 02:46:00,45.3,44.0,29.37,SSW,211,8.0,16.0,95,0.30,,,1.25,Wunderground v.1.15,2013-01-13 08:46:00,
2013-01-13 02:51:00,44.9,43.8,29.38,WNW,288,8.0,11.0,96,0.33,,,1.28,Wunderground v.1.15,2013-01-13 08:51:00,
2013-01-13 02:56:00,44.4,43.1,29.37,West,275,16.0,17.0,95,0.37,,,1.31,Wunderground v.1.15,2013-01-13 08:56:00,
2013-01-13 03:01:00,43.9,42.6,29.37,WSW,246,4.0,12.0,95,0.32,,,1.33,Wunderground v.1.15,2013-01-13 09:01:00,
2013-01-13 03:06:00,43.6,42.3,29.36,WSW,239,7.0,12.0,95,0.41,,,1.37,Wunderground v.1.15,2013-01-13 09:06:00,
2013-01-13 03:11:00,43.3,42.0,29.38,WSW,257,8.0,10.0,95,0.21,,,1.38,Wunderground v.1.15,2013-01-13 09:11:00,
2013-01-13 03:16:00,43.1,42.0,29.37,SW,221,6.0,15.0,96,0.18,,,1.40,Wunderground v.1.15,2013-01-13 09:16:00,
2013-01-13 03:21:00,43.0,41.9,29.39,West,264,11.0,11.0,96,0.17,,,1.41,Wunderground v.1.15,2013-01-13 09:21:00,
2013-01-13 03:26:00,42.9,41.8,29.40,West,262,1.0,11.0,96,0.13,,,1.42,Wunderground v.1.15,2013-01-13 09:26:00,
2013-01-13 03:31:00,42.8,41.5,29.39,NNW,328,2.0,7.0,95,0.20,,,1.44,Wunderground v.1.15,2013-01-13 09:31:00,
2013-01-13 03:36:00,42.6,41.3,29.39,SW,229,6.0,12.0,95,0.20,,,1.45,Wunderground v.1.15,2013-01-13 09:36:00,
2013-01-13 03:41:00,42.5,41.2,29.39,West,270,6.0,13.0,95,0.15,,,1.46,Wunderground v.1.15,2013-01-13 09:41:00,
2013-01-13 03:46:00,42.4,41.3,29.39,NW,321,7.0,13.0,96,0.07,,,1.46,Wunderground v.1.15,2013-01-13 09:46:00,
2013-01-13 03:51:00,42.4,41.3,29.38,WSW,245,3.0,10.0,96,0.06,,,1.47,Wunderground v.1.15,2013-01-13 09:51:00,
2013-01-13 03:56:00,42.4,41.3,29.39,West,263,7.0,10.0,96,0.10,,,1.48,Wunderground v.1.15,2013-01-13 09:56:00,
2013-01-13 04:01:00,42.3,41.2,29.40,West,275,6.0,8.0,96,0.11,,,1.49,Wunderground v.1.15,2013-01-13 10:01:00,
2013-01-13 04:06:00,42.2,41.1,29.40,West,279,2.0,8.0,96,0.11,,,1.50,Wunderground v.1.15,2013-01-13 10:06:00,
2013-01-13 04:11:00,42.2,41.1,29.41,WSW,242,5.0,7.0,96,0.09,,,1.50,Wunderground v.1.15,2013-01-13 10:11:00,
2013-01-13 04:16:00,42.2,41.1,29.41,NNW,328,4.0,7.0,96,0.09,,,1.51,Wunderground v.1.15,2013-01-13 10:16:00,
2013-01-13 04:21:00,42.2,41.1,29.40,NW,323,2.0,4.0,96,0.22,,,1.53,Wunderground v.1.15,2013-01-13 10:21:00,
2013-01-13 04:26:00,42.2,41.1,29.40,NE,52,0.0,7.0,96,0.15,,,1.54,Wunderground v.1.15,2013-01-13 10:26:00,
2013-01-13 04:31:00,42.1,41.0,29.39,North,358,3.0,5.0,96,0.19,,,1.56,Wunderground v.1.15,2013-01-13 10:31:00,
2013-01-13 04:36:00,42.1,41.0,29.39,NW,312,3.0,5.0,96,0.18,,,1.57,Wunderground v.1.15,2013-01-13 10:36:00,
2013-01-13 04:41:00,42.2,41.1,29.39,NW,315,5.0,5.0,96,0.23,,,1.59,Wunderground v.1.15,2013-01-13 10:41:00,
2013-01-13 04:46:00,42.2,41.1,29.39,NNE,24,2.0,7.0,96,0.38,,,1.62,Wunderground v.1.15,2013-01-13 10:46:00,
2013-01-13 04:51:00,42.2,41.1,29.39,NE,34,6.0,6.0,96,0.24,,,1.64,Wunderground v.1.15,2013-01-13 10:51:00,
2013-01-13 04:56:00,42.2,41.1,29.39,NNW,340,5.0,8.0,96,0.27,,,1.66,Wunderground v.1.15,2013-01-13 10:56:00,
2013-01-13 05:01:00,42.1,41.0,29.39,NNW,347,3.0,4.0,96,0.27,,,1.68,Wunderground v.1.15,2013-01-13 11:01:00,
2013-01-13 05:06:00,42.1,41.0,29.40,NNW,345,5.0,9.0,96,0.21,,,1.70,Wunderground v.1.15,2013-01-13 11:06:00,
2013-01-13 05:11:00,42.1,41.0,29.40,NW,307,1.0,4.0,96,0.25,,,1.72,Wunderground v.1.15,2013-01-13 11:11:00,
2013-01-13 05:16:00,42.1,41.0,29.40,West,276,2.0,5.0,96,0.40,,,1.75,Wunderground v.1.15,2013-01-13 11:16:00,
2013-01-13 05:21:00,42.1,41.0,29.41,WNW,282,4.0,6.0,96,0.38,,,1.79,Wunderground v.1.15,2013-01-13 11:21:00,
2013-01-13 05:26:00,42.1,41.3,29.41,WNW,287,0.0,11.0,97,0.24,,,1.81,Wunderground v.1.15,2013-01-13 11:26:00,
2013-01-13 05:31:00,42.2,41.4,29.38,NNW,331,2.0,6.0,97,0.30,,,1.83,Wunderground v.1.15,2013-01-13 11:31:00,
2013-01-13 05:36:00,42.1,41.0,29.37,NNW,332,3.0,7.0,96,0.25,,,1.85,Wunderground v.1.15,2013-01-13 11:36:00,
2013-01-13 05:41:00,42.1,41.3,29.38,NNE,13,3.0,5.0,97,0.18,,,1.86,Wunderground v.1.15,2013-01-13 11:41:00,
2013-01-13 05:46:00,42.2,41.4,29.40,WSW,239,1.0,5.0,97,0.13,,,1.88,Wunderground v.1.15,2013-01-13 11:46:00,
2013-01-13 05:51:00,42.3,41.5,29.41,WSW,239,1.0,2.0,97,0.15,,,1.89,Wunderground v.1.15,2013-01-13 11:51:00,
2013-01-13 05:56:00,42.3,41.5,29.41,WSW,250,4.0,4.0,97,0.23,,,1.91,Wunderground v.1.15,2013-01-13 11:56:00,
2013-01-13 06:01:00,42.3,41.5,29.42,WNW,290,1.0,7.0,97,0.28,,,1.93,Wunderground v.1.15,2013-01-13 12:01:00,
2013-01-13 06:06:00,42.3,41.5,29.43,WSW,250,2.0,10.0,97,0.33,,,1.95,Wunderground v.1.15,2013-01-13 12:06:00,
2013-01-13 06:11:00,42.1,41.3,29.44,West,273,14.0,14.0,97,0.34,,,1.98,Wunderground v.1.15,2013-01-13 12:11:00,
2013-01-13 06:16:00,42.0,41.2,29.44,WSW,240,6.0,14.0,97,0.27,,,2.01,Wunderground v.1.15,2013-01-13 12:16:00,
2013-01-13 06:21:00,41.8,41.0,29.45,SW,233,8.0,9.0,97,0.30,,,2.03,Wunderground v.1.15,2013-01-13 12:21:00,
2013-01-13 06:26:00,41.5,40.4,29.47,WSW,243,6.0,16.0,96,0.19,,,2.05,Wunderground v.1.15,2013-01-13 12:26:00,
2013-01-13 06:31:00,41.1,40.0,29.47,West,269,9.0,13.0,96,0.22,,,2.07,Wunderground v.1.15,2013-01-13 12:31:00,
2013-01-13 06:36:00,41.1,40.0,29.47,West,270,12.0,13.0,96,0.14,,,2.08,Wunderground v.1.15,2013-01-13 12:36:00,
2013-01-13 06:41:00,40.6,39.3,29.46,West,267,11.0,13.0,95,0.12,,,2.09,Wunderground v.1.15,2013-01-13 12:41:00,
2013-01-13 06:46:00,40.1,38.8,29.46,SW,222,3.0,14.0,95,0.14,,,2.10,Wunderground v.1.15,2013-01-13 12:46:00,
2013-01-13 06:51:00,39.8,38.5,29.45,NNW,339,3.0,13.0,95,0.15,,,2.11,Wunderground v.1.15,2013-01-13 12:51:00,
2013-01-13 06:56:00,39.7,38.7,29.45,NW,319,4.0,13.0,96,0.12,,,2.12,Wunderground v.1.15,2013-01-13 12:56:00,
2013-01-13 07:01:00,39.7,38.7,29.46,WNW,287,7.0,9.0,96,0.09,,,2.13,Wunderground v.1.15,2013-01-13 13:01:00,
2013-01-13 07:06:00,39.5,38.5,29.46,WNW,298,5.0,11.0,96,0.11,,,2.14,Wunderground v.1.15,2013-01-13 13:06:00,
2013-01-13 07:11:00,39.4,38.4,29.45,WNW,300,6.0,10.0,96,0.16,,,2.15,Wunderground v.1.15,2013-01-13 13:11:00,
2013-01-13 07:16:00,39.2,37.9,29.43,NW,311,5.0,11.0,95,0.13,,,2.16,Wunderground v.1.15,2013-01-13 13:16:00,
2013-01-13 07:21:00,39.1,38.1,29.44,NNE,33,6.0,9.0,96,0.06,,,2.17,Wunderground v.1.15,2013-01-13 13:21:00,
2013-01-13 07:26:00,39.1,38.1,29.43,ENE,73,4.0,10.0,96,0.06,,,2.17,Wunderground v.1.15,2013-01-13 13:26:00,
2013-01-13 07:31:00,39.0,38.0,29.43,NW,314,7.0,10.0,96,0.06,,,2.17,Wunderground v.1.15,2013-01-13 13:31:00,
2013-01-13 07:36:00,38.8,37.8,29.43,WNW,302,2.0,15.0,96,0.04,,,2.17,Wunderground v.1.15,2013-01-13 13:36:00,
2013-01-13 07:41:00,38.8,37.5,29.43,NNW,333,7.0,11.0,95,0.00,,,2.17,Wunderground v.1.15,2013-01-13 13:41:00,
2013-01-13 07:46:00,38.7,37.4,29.43,WSW,243,7.0,14.0,95,0.00,,,2.17,Wunderground v.1.15,2013-01-13 13:46:00,
2013-01-13 07:51:00,38.7,37.4,29.42,NW,326,11.0,13.0,95,0.00,,,2.17,Wunderground v.1.15,2013-01-13 13:51:00,
2013-01-13 07:56:00,38.7,37.4,29.43,NNE,33,4.0,13.0,95,0.00,,,2.17,Wunderground v.1.15,2013-01-13 13:56:00,
2013-01-13 08:01:00,38.7,37.4,29.44,NW,313,6.0,11.0,95,0.00,,,2.17,Wunderground v.1.15,2013-01-13 14:01:00,
2013-01-13 08:06:00,38.7,37.4,29.45,East,89,2.0,11.0,95,0.00,,,2.17,Wunderground v.1.15,2013-01-13 14:06:00,
2013-01-13 08:11:00,38.7,37.4,29.46,NNW,334,7.0,9.0,95,0.00,,,2.17,Wunderground v.1.15,2013-01-13 14:11:00,
2013-01-13 08:16:00,38.7,37.4,29.46,West,264,6.0,11.0,95,0.00,,,2.17,Wunderground v.1.15,2013-01-13 14:16:00,
2013-01-13 08:21:00,38.8,37.5,29.46,ESE,107,2.0,9.0,95,0.00,,,2.17,Wunderground v.1.15,2013-01-13 14:21:00,
2013-01-13 08:26:00,38.8,37.5,29.47,West,260,6.0,9.0,95,0.00,,,2.17,Wunderground v.1.15,2013-01-13 14:26:00,
2013-01-13 08:31:00,38.7,37.4,29.47,WNW,295,9.0,14.0,95,0.00,,,2.17,Wunderground v.1.15,2013-01-13 14:31:00,
2013-01-13 08:36:00,38.7,37.4,29.47,NW,304,5.0,14.0,95,0.00,,,2.17,Wunderground v.1.15,2013-01-13 14:36:00,
2013-01-13 08:41:00,38.6,37.6,29.47,WSW,240,6.0,10.0,96,0.00,,,2.18,Wunderground v.1.15,2013-01-13 14:41:00,
2013-01-13 08:46:00,38.5,37.5,29.47,WSW,246,11.0,12.0,96,0.08,,,2.19,Wunderground v.1.15,2013-01-13 14:46:00,
2013-01-13 08:51:00,38.4,37.4,29.48,WSW,257,7.0,11.0,96,0.10,,,2.20,Wunderground v.1.15,2013-01-13 14:51:00,
2013-01-13 08:56:00,38.3,37.3,29.48,WSW,256,6.0,15.0,96,0.27,,,2.22,Wunderground v.1.15,2013-01-13 14:56:00,
2013-01-13 09:01:00,38.3,37.3,29.47,NW,315,4.0,8.0,96,0.28,,,2.24,Wunderground v.1.15,2013-01-13 15:01:00,
2013-01-13 09:06:00,38.3,37.3,29.48,WSW,256,11.0,12.0,96,0.36,,,2.26,Wunderground v.1.15,2013-01-13 15:06:00,
2013-01-13 09:11:00,38.3,37.3,29.46,North,356,5.0,9.0,96,0.34,,,2.29,Wunderground v.1.15,2013-01-13 15:11:00,
2013-01-13 09:16:00,38.4,37.6,29.46,WSW,250,11.0,11.0,97,0.28,,,2.32,Wunderground v.1.15,2013-01-13 15:16:00,
2013-01-13 09:21:00,38.2,37.2,29.47,NW,307,5.0,10.0,96,0.32,,,2.34,Wunderground v.1.15,2013-01-13 15:21:00,
2013-01-13 09:26:00,38.1,37.1,29.48,WSW,250,8.0,16.0,96,0.34,,,2.38,Wunderground v.1.15,2013-01-13 15:26:00,
2013-01-13 09:31:00,38.1,37.1,29.48,WNW,293,2.0,7.0,96,0.21,,,2.39,Wunderground v.1.15,2013-01-13 15:31:00,
2013-01-13 09:36:00,38.1,37.1,29.48,SE,125,4.0,9.0,96,0.30,,,2.42,Wunderground v.1.15,2013-01-13 15:36:00,
2013-01-13 09:41:00,38.0,37.0,29.48,West,271,8.0,12.0,96,0.24,,,2.44,Wunderground v.1.15,2013-01-13 15:41:00,
2013-01-13 09:46:00,38.0,37.0,29.48,WNW,290,5.0,15.0,96,0.24,,,2.46,Wunderground v.1.15,2013-01-13 15:46:00,
2013-01-13 09:51:00,38.0,37.0,29.49,SW,218,5.0,9.0,96,0.34,,,2.48,Wunderground v.1.15,2013-01-13 15:51:00,
2013-01-13 09:56:00,38.0,37.0,29.49,WSW,252,7.0,14.0,96,0.46,,,2.52,Wunderground v.1.15,2013-01-13 15:56:00,
2013-01-13 10:01:00,38.0,37.0,29.49,WSW,257,6.0,10.0,96,0.21,,,2.54,Wunderground v.1.15,2013-01-13 16:01:00,
2013-01-13 10:06:00,38.0,37.0,29.49,WSW,249,3.0,10.0,96,0.16,,,2.56,Wunderground v.1.15,2013-01-13 16:06:00,
2013-01-13 10:11:00,38.0,37.0,29.48,SSW,212,3.0,6.0,96,0.10,,,2.56,Wunderground v.1.15,2013-01-13 16:11:00,
2013-01-13 10:16:00,37.9,36.9,29.47,SW,215,1.0,9.0,96,0.08,,,2.57,Wunderground v.1.15,2013-01-13 16:16:00,
2013-01-13 10:21:00,37.9,36.9,29.46,North,1,3.0,6.0,96,0.07,,,2.57,Wunderground v.1.15,2013-01-13 16:21:00,
2013-01-13 10:26:00,38.0,37.0,29.46,North,354,5.0,6.0,96,0.06,,,2.58,Wunderground v.1.15,2013-01-13 16:26:00,
2013-01-13 10:31:00,38.0,37.0,29.47,SSW,200,4.0,10.0,96,0.06,,,2.58,Wunderground v.1.15,2013-01-13 16:31:00,
2013-01-13 10:36:00,38.0,37.0,29.46,WNW,297,3.0,11.0,96,0.04,,,2.58,Wunderground v.1.15,2013-01-13 16:36:00,
2013-01-13 10:41:00,38.1,37.1,29.47,SW,231,3.0,8.0,96,0.00,,,2.58,Wunderground v.1.15,2013-01-13 16:41:00,
2013-01-13 10:46:00,38.1,37.1,29.47,WNW,296,6.0,10.0,96,0.00,,,2.58,Wunderground v.1.15,2013-01-13 16:46:00,
2013-01-13 10:51:00,38.0,37.0,29.47,ESE,115,1.0,10.0,96,0.00,,,2.58,Wunderground v.1.15,2013-01-13 16:51:00,
2013-01-13 10:56:00,38.0,37.0,29.47,SE,125,2.0,11.0,96,0.00,,,2.59,Wunderground v.1.15,2013-01-13 16:56:00,
2013-01-13 11:01:00,38.1,37.1,29.46,WNW,283,1.0,7.0,96,0.09,,,2.60,Wunderground v.1.15,2013-01-13 17:01:00,
2013-01-13 11:06:00,38.2,37.2,29.47,WSW,242,1.0,7.0,96,0.08,,,2.60,Wunderground v.1.15,2013-01-13 17:06:00,
2013-01-13 11:11:00,38.2,37.2,29.46,NNW,340,6.0,9.0,96,0.05,,,2.60,Wunderground v.1.15,2013-01-13 17:11:00,
2013-01-13 11:16:00,38.1,36.8,29.47,WSW,249,7.0,9.0,95,0.00,,,2.60,Wunderground v.1.15,2013-01-13 17:16:00,
2013-01-13 11:21:00,38.1,37.1,29.47,NW,312,2.0,8.0,96,0.00,,,2.60,Wunderground v.1.15,2013-01-13 17:21:00,
2013-01-13 11:26:00,38.2,37.2,29.47,SW,236,2.0,9.0,96,0.00,,,2.61,Wunderground v.1.15,2013-01-13 17:26:00,
2013-01-13 11:31:00,38.1,36.8,29.48,West,279,8.0,13.0,95,0.18,,,2.62,Wunderground v.1.15,2013-01-13 17:31:00,
2013-01-13 11:36:00,38.1,37.1,29.49,SSW,194,4.0,13.0,96,0.13,,,2.64,Wunderground v.1.15,2013-01-13 17:36:00,
2013-01-13 11:41:00,38.0,37.0,29.49,South,191,2.0,9.0,96,0.41,,,2.66,Wunderground v.1.15,2013-01-13 17:41:00,
2013-01-13 11:46:00,37.8,36.5,29.47,SW,218,4.0,15.0,95,0.24,,,2.69,Wunderground v.1.15,2013-01-13 17:46:00,
2013-01-13 11:51:00,37.7,36.4,29.48,West,278,10.0,15.0,95,0.20,,,2.71,Wunderground v.1.15,2013-01-13 17:51:00,
2013-01-13 11:56:00,37.6,36.6,29.47,West,274,6.0,15.0,96,0.29,,,2.73,Wunderground v.1.15,2013-01-13 17:56:00,
2013-01-13 12:01:00,37.6,36.6,29.46,West,276,4.0,10.0,96,0.29,,,2.76,Wunderground v.1.15,2013-01-13 18:01:00,
2013-01-13 12:06:00,37.6,36.6,29.47,West,262,5.0,11.0,96,0.44,,,2.79,Wunderground v.1.15,2013-01-13 18:06:00,
2013-01-13 12:11:00,37.6,36.6,29.47,WNW,296,4.0,11.0,96,0.64,,,2.83,Wunderground v.1.15,2013-01-13 18:11:00,
2013-01-13 12:16:00,37.4,36.4,29.47,West,280,8.0,16.0,96,0.49,,,2.88,Wunderground v.1.15,2013-01-13 18:16:00,
2013-01-13 12:21:00,37.1,35.8,29.48,WSW,241,6.0,13.0,95,0.49,,,2.92,Wunderground v.1.15,2013-01-13 18:21:00,
2013-01-13 12:26:00,37.0,36.0,29.47,WSW,257,2.0,13.0,96,0.38,,,2.95,Wunderground v.1.15,2013-01-13 18:26:00,
2013-01-13 12:31:00,36.8,35.8,29.47,WSW,249,10.0,10.0,96,0.49,,,3.00,Wunderground v.1.15,2013-01-13 18:31:00,
2013-01-13 12:36:00,36.5,35.5,29.45,WNW,288,6.0,13.0,96,0.47,,,3.04,Wunderground v.1.15,2013-01-13 18:36:00,
2013-01-13 12:41:00,36.5,35.5,29.46,SSW,200,4.0,11.0,96,0.37,,,3.07,Wunderground v.1.15,2013-01-13 18:41:00,
2013-01-13 12:46:00,36.4,35.4,29.48,WNW,295,17.0,20.0,96,0.22,,,3.10,Wunderground v.1.15,2013-01-13 18:46:00,
2013-01-13 12:51:00,36.2,34.9,29.49,West,281,5.0,15.0,95,0.11,,,3.10,Wunderground v.1.15,2013-01-13 18:51:00,
2013-01-13 12:57:00,35.6,34.0,29.49,WSW,255,11.0,15.0,94,0.06,,,3.10,Wunderground v.1.15,2013-01-13 18:57:00,
2013-01-13 13:01:00,35.1,33.5,29.49,NNE,22,7.0,15.0,94,0.04,,,3.10,Wunderground v.1.15,2013-01-13 19:01:00,
2013-01-13 13:06:00,34.8,33.2,29.50,West,260,8.0,18.0,94,0.00,,,3.10,Wunderground v.1.15,2013-01-13 19:06:00,
2013-01-13 13:11:00,34.5,32.7,29.50,WNW,296,8.0,12.0,93,0.00,,,3.10,Wunderground v.1.15,2013-01-13 19:11:00,
2013-01-13 13:17:00,34.4,32.6,29.50,WSW,249,7.0,13.0,93,0.00,,,3.11,Wunderground v.1.15,2013-01-13 19:17:00,
2013-01-13 13:22:00,34.2,32.4,29.51,West,278,8.0,10.0,93,0.23,,,3.13,Wunderground v.1.15,2013-01-13 19:22:00,
2013-01-13 13:27:00,34.2,32.7,29.50,WNW,290,6.0,13.0,94,0.25,,,3.16,Wunderground v.1.15,2013-01-13 19:27:00,
2013-01-13 13:32:00,34.1,32.6,29.51,West,277,8.0,12.0,94,0.20,,,3.17,Wunderground v.1.15,2013-01-13 19:32:00,
2013-01-13 13:37:00,33.9,32.4,29.51,West,274,15.0,15.0,94,0.07,,,3.17,Wunderground v.1.15,2013-01-13 19:37:00,
2013-01-13 13:42:00,33.7,32.2,29.50,WNW,284,4.0,13.0,94,0.06,,,3.18,Wunderground v.1.15,2013-01-13 19:42:00,
2013-01-13 13:47:00,33.5,32.0,29.50,WSW,256,7.0,16.0,94,0.06,,,3.18,Wunderground v.1.15,2013-01-13 19:47:00,
2013-01-13 13:52:00,33.3,31.8,29.51,West,274,10.0,15.0,94,0.05,,,3.18,Wunderground v.1.15,2013-01-13 19:52:00,
2013-01-13 13:57:00,33.2,31.7,29.51,WSW,250,13.0,19.0,94,0.00,,,3.18,Wunderground v.1.15,2013-01-13 19:57:00,
2013-01-13 14:02:00,33.1,31.6,29.52,WSW,249,5.0,10.0,94,0.00,,,3.19,Wunderground v.1.15,2013-01-13 20:02:00,
2013-01-13 14:07:00,33.1,31.6,29.53,West,278,7.0,13.0,94,0.09,,,3.20,Wunderground v.1.15,2013-01-13 20:07:00,
2013-01-13 14:12:00,33.1,31.8,29.54,WSW,238,4.0,6.0,95,0.11,,,3.21,Wunderground v.1.15,2013-01-13 20:12:00,
2013-01-13 14:17:00,33.1,31.8,29.55,SW,218,5.0,12.0,95,0.10,,,3.21,Wunderground v.1.15,2013-01-13 20:17:00,
2013-01-13 14:22:00,33.0,31.5,29.56,NNW,334,5.0,14.0,94,0.06,,,3.22,Wunderground v.1.15,2013-01-13 20:22:00,
2013-01-13 14:27:00,33.0,31.7,29.55,WNW,298,8.0,14.0,95,0.06,,,3.22,Wunderground v.1.15,2013-01-13 20:27:00,
2013-01-13 14:32:00,33.1,31.8,29.54,WNW,290,4.0,10.0,95,0.09,,,3.23,Wunderground v.1.15,2013-01-13 20:32:00,
2013-01-13 14:37:00,33.4,32.1,29.55,SW,218,3.0,10.0,95,0.06,,,3.23,Wunderground v.1.15,2013-01-13 20:37:00,
2013-01-13 14:42:00,33.5,32.5,29.56,SSW,203,7.0,9.0,96,0.04,,,3.23,Wunderground v.1.15,2013-01-13 20:42:00,
2013-01-13 14:47:00,33.4,32.1,29.56,WNW,289,5.0,15.0,95,0.00,,,3.23,Wunderground v.1.15,2013-01-13 20:47:00,
2013-01-13 14:52:00,33.5,32.2,29.55,West,266,12.0,12.0,95,0.00,,,3.23,Wunderground v.1.15,2013-01-13 20:52:00,
2013-01-13 14:57:00,33.5,32.2,29.55,WSW,253,7.0,12.0,95,0.00,,,3.23,Wunderground v.1.15,2013-01-13 20:57:00,
2013-01-13 15:02:00,33.7,32.4,29.56,SW,232,4.0,8.0,95,0.00,,,3.23,Wunderground v.1.15,2013-01-13 21:02:00,
2013-01-13 15:07:00,33.6,32.1,29.57,SE,141,7.0,17.0,94,0.00,,,3.23,Wunderground v.1.15,2013-01-13 21:07:00,
2013-01-13 15:12:00,33.7,32.2,29.59,WNW,287,5.0,14.0,94,0.00,,,3.23,Wunderground v.1.15,2013-01-13 21:12:00,
2013-01-13 15:17:00,33.6,32.1,29.59,West,262,7.0,20.0,94,0.00,,,3.23,Wunderground v.1.15,2013-01-13 21:17:00,
2013-01-13 15:22:00,33.4,31.9,29.60,WNW,300,8.0,19.0,94,0.00,,,3.23,Wunderground v.1.15,2013-01-13 21:22:00,
2013-01-13 15:27:00,33.1,31.3,29.59,WSW,246,8.0,19.0,93,0.00,,,3.23,Wunderground v.1.15,2013-01-13 21:27:00,
2013-01-13 15:32:00,33.0,30.9,29.60,West,260,17.0,19.0,92,0.00,,,3.23,Wunderground v.1.15,2013-01-13 21:32:00,
2013-01-13 15:37:00,32.8,30.7,29.59,WNW,284,3.0,22.0,92,0.00,,,3.23,Wunderground v.1.15,2013-01-13 21:37:00,
2013-01-13 15:42:00,32.8,30.7,29.60,West,281,15.0,18.0,92,0.00,,,3.23,Wunderground v.1.15,2013-01-13 21:42:00,
2013-01-13 15:47:00,32.7,30.6,29.60,West,270,8.0,24.0,92,0.00,,,3.23,Wunderground v.1.15,2013-01-13 21:47:00,
2013-01-13 15:52:00,32.7,30.9,29.61,WNW,295,9.0,19.0,93,0.00,,,3.23,Wunderground v.1.15,2013-01-13 21:52:00,
2013-01-13 15:57:00,32.7,30.9,29.62,West,267,9.0,19.0,93,0.00,,,3.23,Wunderground v.1.15,2013-01-13 21:57:00,
2013-01-13 16:02:00,32.7,30.9,29.63,WNW,283,10.0,19.0,93,0.00,,,3.23,Wunderground v.1.15,2013-01-13 22:02:00,
2013-01-13 16:07:00,32.7,30.6,29.65,SSW,193,6.0,19.0,92,0.00,,,3.23,Wunderground v.1.15,2013-01-13 22:07:00,
2013-01-13 16:12:00,32.6,30.5,29.64,WSW,243,6.0,15.0,92,0.00,,,3.23,Wunderground v.1.15,2013-01-13 22:12:00,
2013-01-13 16:17:00,32.6,30.5,29.65,WNW,283,5.0,15.0,92,0.00,,,3.23,Wunderground v.1.15,2013-01-13 22:17:00,
2013-01-13 16:22:00,32.6,30.5,29.65,WNW,284,9.0,19.0,92,0.00,,,3.23,Wunderground v.1.15,2013-01-13 22:22:00,
2013-01-13 16:27:00,32.7,30.6,29.66,WSW,254,7.0,19.0,92,0.00,,,3.23,Wunderground v.1.15,2013-01-13 22:27:00,
2013-01-13 16:32:00,32.7,30.6,29.66,ENE,62,5.0,11.0,92,0.00,,,3.23,Wunderground v.1.15,2013-01-13 22:32:00,
2013-01-13 16:37:00,32.7,30.6,29.66,WNW,283,5.0,15.0,92,0.00,,,3.23,Wunderground v.1.15,2013-01-13 22:37:00,
2013-01-13 16:42:00,32.6,30.5,29.66,SSW,209,6.0,13.0,92,0.00,,,3.23,Wunderground v.1.15,2013-01-13 22:42:00,
2013-01-13 16:47:00,32.6,30.5,29.66,SW,232,7.0,13.0,92,0.00,,,3.23,Wunderground v.1.15,2013-01-13 22:47:00,
2013-01-13 16:52:00,32.5,30.4,29.66,WNW,285,4.0,11.0,92,0.00,,,3.23,Wunderground v.1.15,2013-01-13 22:52:00,
2013-01-13 16:57:00,32.4,30.3,29.67,West,269,3.0,11.0,92,0.00,,,3.23,Wunderground v.1.15,2013-01-13 22:57:00,
2013-01-13 17:02:00,32.4,30.1,29.67,South,191,9.0,14.0,91,0.00,,,3.23,Wunderground v.1.15,2013-01-13 23:02:00,
2013-01-13 17:07:00,32.4,30.1,29.67,SW,222,6.0,16.0,91,0.00,,,3.23,Wunderground v.1.15,2013-01-13 23:07:00,
2013-01-13 17:12:00,32.4,29.8,29.68,WNW,296,8.0,15.0,90,0.00,,,3.23,Wunderground v.1.15,2013-01-13 23:12:00,
2013-01-13 17:17:00,32.4,30.1,29.68,SE,145,4.0,15.0,91,0.00,,,3.23,Wunderground v.1.15,2013-01-13 23:17:00,
2013-01-13 17:22:00,32.5,30.2,29.69,West,279,3.0,8.0,91,0.00,,,3.23,Wunderground v.1.15,2013-01-13 23:22:00,
2013-01-13 17:27:00,32.5,30.2,29.69,West,274,6.0,8.0,91,0.00,,,3.23,Wunderground v.1.15,2013-01-13 23:27:00,
2013-01-13 17:32:00,32.5,30.2,29.69,South,186,6.0,15.0,91,0.00,,,3.23,Wunderground v.1.15,2013-01-13 23:32:00,
2013-01-13 17:37:00,32.5,30.2,29.69,SW,229,2.0,15.0,91,0.00,,,3.23,Wunderground v.1.15,2013-01-13 23:37:00,
2013-01-13 17:42:00,32.4,29.8,29.69,West,262,6.0,13.0,90,0.00,,,3.23,Wunderground v.1.15,2013-01-13 23:42:00,
2013-01-13 17:47:00,32.2,29.3,29.70,NW,313,8.0,14.0,89,0.00,,,3.23,Wunderground v.1.15,2013-01-13 23:47:00,
2013-01-13 17:52:00,32.1,28.9,29.70,West,267,11.0,15.0,88,0.00,,,3.23,Wunderground v.1.15,2013-01-13 23:52:00,
2013-01-13 17:57:00,32.1,28.9,29.70,NW,307,12.0,15.0,88,0.00,,,3.23,Wunderground v.1.15,2013-01-13 23:57:00,
2013-01-13 18:02:00,32.1,29.2,29.71,SW,220,3.0,10.0,89,0.00,,,3.23,Wunderground v.1.15,2013-01-14 00:02:00,
2013-01-13 18:07:00,32.0,28.6,29.70,SW,229,8.0,17.0,87,0.00,,,3.23,Wunderground v.1.15,2013-01-14 00:07:00,
2013-01-13 18:12:00,31.9,28.2,29.71,WNW,300,5.0,13.0,86,0.00,,,3.23,Wunderground v.1.15,2013-01-14 00:12:00,
2013-01-13 18:17:00,31.7,28.0,29.70,West,260,8.0,17.0,86,0.00,,,3.23,Wunderground v.1.15,2013-01-14 00:17:00,
2013-01-13 18:22:00,31.5,28.1,29.70,SW,217,8.0,9.0,87,0.00,,,3.23,Wunderground v.1.15,2013-01-14 00:22:00,
2013-01-13 18:27:00,31.5,27.8,29.71,WNW,285,8.0,19.0,86,0.00,,,3.23,Wunderground v.1.15,2013-01-14 00:27:00,
2013-01-13 18:32:00,31.4,27.7,29.71,SSW,192,4.0,14.0,86,0.00,,,3.23,Wunderground v.1.15,2013-01-14 00:32:00,
2013-01-13 18:37:00,31.4,27.7,29.71,SSW,204,4.0,14.0,86,0.00,,,3.23,Wunderground v.1.15,2013-01-14 00:37:00,
2013-01-13 18:42:00,31.4,28.0,29.70,WSW,239,7.0,10.0,87,0.00,,,3.23,Wunderground v.1.15,2013-01-14 00:42:00,
2013-01-13 18:47:00,31.3,27.9,29.71,West,260,9.0,12.0,87,0.00,,,3.23,Wunderground v.1.15,2013-01-14 00:47:00,
2013-01-13 18:52:00,31.1,27.4,29.71,SSE,155,5.0,12.0,86,0.00,,,3.23,Wunderground v.1.15,2013-01-14 00:52:00,
2013-01-13 18:57:00,31.0,27.3,29.72,West,269,4.0,12.0,86,0.00,,,3.23,Wunderground v.1.15,2013-01-14 00:57:00,
2013-01-13 19:02:00,30.9,26.9,29.72,WNW,284,11.0,17.0,85,0.00,,,3.23,Wunderground v.1.15,2013-01-14 01:02:00,
2013-01-13 19:07:00,30.7,26.7,29.72,West,274,12.0,17.0,85,0.00,,,3.23,Wunderground v.1.15,2013-01-14 01:07:00,
2013-01-13 19:12:00,30.6,26.6,29.72,West,281,7.0,12.0,85,0.00,,,3.23,Wunderground v.1.15,2013-01-14 01:12:00,
2013-01-13 19:17:00,30.5,26.5,29.73,NNE,13,6.0,14.0,85,0.00,,,3.23,Wunderground v.1.15,2013-01-14 01:17:00,
2013-01-13 19:22:00,30.4,26.7,29.73,WNW,301,6.0,8.0,86,0.00,,,3.23,Wunderground v.1.15,2013-01-14 01:22:00,
2013-01-13 19:27:00,30.2,26.2,29.73,SSW,209,4.0,14.0,85,0.00,,,3.23,Wunderground v.1.15,2013-01-14 01:27:00,
2013-01-13 19:32:00,30.0,25.5,29.73,WSW,245,9.0,16.0,83,0.00,,,3.23,Wunderground v.1.15,2013-01-14 01:32:00,
2013-01-13 19:37:00,29.9,25.4,29.73,North,4,4.0,16.0,83,0.00,,,3.23,Wunderground v.1.15,2013-01-14 01:37:00,
2013-01-13 19:42:00,29.8,25.6,29.74,NW,304,4.0,12.0,84,0.00,,,3.23,Wunderground v.1.15,2013-01-14 01:42:00,
2013-01-13 19:47:00,29.8,25.6,29.74,West,280,11.0,12.0,84,0.00,,,3.23,Wunderground v.1.15,2013-01-14 01:47:00,
2013-01-13 19:52:00,29.7,25.7,29.74,West,274,7.0,7.0,85,0.00,,,3.23,Wunderground v.1.15,2013-01-14 01:52:00,
2013-01-13 19:57:00,29.6,25.1,29.74,West,281,6.0,13.0,83,0.00,,,3.23,Wunderground v.1.15,2013-01-14 01:57:00,
2013-01-13 20:02:00,29.5,24.7,29.75,WNW,302,12.0,15.0,82,0.00,,,3.23,Wunderground v.1.15,2013-01-14 02:02:00,
2013-01-13 20:07:00,29.4,25.2,29.74,WNW,288,8.0,15.0,84,0.00,,,3.23,Wunderground v.1.15,2013-01-14 02:07:00,
2013-01-13 20:12:00,29.3,25.1,29.75,WNW,291,7.0,11.0,84,0.00,,,3.23,Wunderground v.1.15,2013-01-14 02:12:00,
2013-01-13 20:17:00,29.2,25.0,29.75,WSW,242,5.0,11.0,84,0.00,,,3.23,Wunderground v.1.15,2013-01-14 02:17:00,
2013-01-13 20:22:00,29.2,25.0,29.75,West,271,5.0,11.0,84,0.00,,,3.23,Wunderground v.1.15,2013-01-14 02:22:00,
2013-01-13 20:27:00,29.1,25.2,29.75,WNW,288,4.0,12.0,85,0.00,,,3.23,Wunderground v.1.15,2013-01-14 02:27:00,
2013-01-13 20:32:00,29.0,25.1,29.75,West,272,10.0,13.0,85,0.00,,,3.23,Wunderground v.1.15,2013-01-14 02:32:00,
2013-01-13 20:37:00,28.9,24.4,29.75,West,281,11.0,18.0,83,0.00,,,3.23,Wunderground v.1.15,2013-01-14 02:37:00,
2013-01-13 20:42:00,28.8,24.3,29.75,West,276,4.0,13.0,83,0.00,,,3.23,Wunderground v.1.15,2013-01-14 02:42:00,
2013-01-13 20:47:00,28.7,24.2,29.75,WNW,291,7.0,13.0,83,0.00,,,3.23,Wunderground v.1.15,2013-01-14 02:47:00,
2013-01-13 20:52:00,28.6,23.8,29.76,WSW,248,10.0,14.0,82,0.00,,,3.23,Wunderground v.1.15,2013-01-14 02:52:00,
2013-01-13 20:57:00,28.6,24.1,29.76,WSW,246,11.0,16.0,83,0.00,,,3.23,Wunderground v.1.15,2013-01-14 02:57:00,
2013-01-13 21:02:00,28.5,24.0,29.76,West,276,5.0,12.0,83,0.00,,,3.23,Wunderground v.1.15,2013-01-14 03:02:00,
2013-01-13 21:07:00,28.4,24.2,29.77,SW,225,2.0,12.0,84,0.00,,,3.23,Wunderground v.1.15,2013-01-14 03:07:00,
2013-01-13 21:12:00,28.3,24.1,29.77,West,259,6.0,8.0,84,0.00,,,3.23,Wunderground v.1.15,2013-01-14 03:12:00,
2013-01-13 21:17:00,28.2,24.0,29.77,West,276,6.0,13.0,84,0.00,,,3.23,Wunderground v.1.15,2013-01-14 03:17:00,
2013-01-13 21:22:00,28.1,23.9,29.77,West,269,3.0,8.0,84,0.00,,,3.23,Wunderground v.1.15,2013-01-14 03:22:00,
2013-01-13 21:27:00,28.1,24.2,29.77,West,268,5.0,10.0,85,0.00,,,3.23,Wunderground v.1.15,2013-01-14 03:27:00,
2013-01-13 21:32:00,28.0,24.1,29.77,SSE,164,5.0,13.0,85,0.00,,,3.23,Wunderground v.1.15,2013-01-14 03:32:00,
2013-01-13 21:37:00,28.0,23.8,29.78,WNW,290,5.0,13.0,84,0.00,,,3.23,Wunderground v.1.15,2013-01-14 03:37:00,
2013-01-13 21:42:00,28.0,24.1,29.78,WSW,237,9.0,10.0,85,0.00,,,3.23,Wunderground v.1.15,2013-01-14 03:42:00,
2013-01-13 21:47:00,28.0,23.8,29.79,West,267,5.0,11.0,84,0.00,,,3.23,Wunderground v.1.15,2013-01-14 03:47:00,
2013-01-13 21:52:00,27.9,23.7,29.79,West,267,8.0,11.0,84,0.00,,,3.23,Wunderground v.1.15,2013-01-14 03:52:00,
2013-01-13 21:57:00,27.8,23.6,29.79,NW,307,4.0,11.0,84,0.00,,,3.23,Wunderground v.1.15,2013-01-14 03:57:00,
2013-01-13 22:02:00,27.8,23.6,29.79,WNW,287,10.0,10.0,84,0.00,,,3.23,Wunderground v.1.15,2013-01-14 04:02:00,
2013-01-13 22:07:00,27.8,23.6,29.80,WNW,287,4.0,16.0,84,0.00,,,3.23,Wunderground v.1.15,2013-01-14 04:07:00,
2013-01-13 22:12:00,27.8,23.6,29.80,West,262,9.0,9.0,84,0.00,,,3.23,Wunderground v.1.15,2013-01-14 04:12:00,
2013-01-13 22:17:00,27.6,23.1,29.80,WNW,290,9.0,16.0,83,0.00,,,3.23,Wunderground v.1.15,2013-01-14 04:17:00,
2013-01-13 22:22:00,27.6,23.4,29.80,WNW,287,2.0,8.0,84,0.00,,,3.23,Wunderground v.1.15,2013-01-14 04:22:00,
2013-01-13 22:27:00,27.5,23.0,29.81,WSW,248,4.0,12.0,83,0.00,,,3.23,Wunderground v.1.15,2013-01-14 04:27:00,
2013-01-13 22:32:00,27.5,23.3,29.81,WNW,289,10.0,11.0,84,0.00,,,3.23,Wunderground v.1.15,2013-01-14 04:32:00,
2013-01-13 22:37:00,27.5,23.3,29.81,SSW,207,2.0,13.0,84,0.00,,,3.23,Wunderground v.1.15,2013-01-14 04:37:00,
2013-01-13 22:42:00,27.5,23.3,29.81,West,271,5.0,13.0,84,0.00,,,3.23,Wunderground v.1.15,2013-01-14 04:42:00,
2013-01-13 22:47:00,27.4,22.9,29.81,West,259,3.0,14.0,83,0.00,,,3.23,Wunderground v.1.15,2013-01-14 04:47:00,
2013-01-13 22:52:00,27.4,23.2,29.81,West,274,2.0,10.0,84,0.00,,,3.23,Wunderground v.1.15,2013-01-14 04:52:00,
2013-01-13 22:57:00,27.3,23.1,29.82,East,91,3.0,15.0,84,0.00,,,3.23,Wunderground v.1.15,2013-01-14 04:57:00,
2013-01-13 23:00:00,27.3,23.1,29.82,SW,235,7.0,7.0,84,0.00,,,3.23,Wunderground v.1.15,2013-01-14 05:00:00,
2013-01-13 23:03:00,27.3,23.1,29.82,SE,134,1.0,8.0,84,0.00,,,3.23,Wunderground v.1.15,2013-01-14 05:03:00,
2013-01-13 23:08:00,27.4,23.2,29.82,WNW,283,4.0,9.0,84,0.00,,,3.23,Wunderground v.1.15,2013-01-14 05:08:00,
2013-01-13 23:13:00,27.2,23.0,29.82,NW,304,8.0,13.0,84,0.00,,,3.23,Wunderground v.1.15,2013-01-14 05:13:00,
2013-01-13 23:18:00,27.2,23.0,29.82,West,274,6.0,13.0,84,0.00,,,3.23,Wunderground v.1.15,2013-01-14 05:18:00,
2013-01-13 23:23:00,27.1,22.9,29.82,WNW,293,7.0,13.0,84,0.00,,,3.23,Wunderground v.1.15,2013-01-14 05:23:00,
2013-01-13 23:28:00,27.0,22.8,29.82,NW,309,2.0,13.0,84,0.00,,,3.23,Wunderground v.1.15,2013-01-14 05:28:00,
2013-01-13 23:33:00,27.0,22.8,29.82,WSW,250,11.0,12.0,84,0.00,,,3.23,Wunderground v.1.15,2013-01-14 05:33:00,
2013-01-13 23:38:00,26.8,22.6,29.82,West,271,8.0,16.0,84,0.00,,,3.23,Wunderground v.1.15,2013-01-14 05:38:00,
2013-01-13 23:43:00,26.7,22.5,29.82,West,267,7.0,13.0,84,0.00,,,3.23,Wunderground v.1.15,2013-01-14 05:43:00,
2013-01-13 23:48:00,26.7,22.5,29.82,NW,305,3.0,13.0,84,0.00,,,3.23,Wunderground v.1.15,2013-01-14 05:48:00,
2013-01-13 23:53:00,26.7,22.5,29.83,SSW,197,5.0,13.0,84,0.00,,,3.23,Wunderground v.1.15,2013-01-14 05:53:00,
2013-01-13 23:58:00,26.6,22.4,29.83,West,264,8.0,13.0,84,0.00,,,3.23,Wunderground v.1.15,2013-01-14 05:58:00,